Time;durP1;ratioP1;P1;durP2;ratioP2;P2;SDS_P1;SDS_P2;PMS_P1;PMS_P2;Temp;Humidity;BMP_temperature;BMP_pressure;BME280_temperature;BME280_humidity;BME280_pressure;Samples;Min_cycle;Max_cycle;Signal;HPM_P1;HPM_P2
2021/03/30 00:02:02;;;;;;;26.73;13.07;;;;;;;10.89;72.04;102087.34;1694568;83;21664;-77
2021/03/30 00:04:31;;;;;;;23.20;13.22;;;;;;;10.87;72.00;102089.92;1664916;84;21302;-77
2021/03/30 00:06:59;;;;;;;27.55;13.38;;;;;;;10.81;72.01;102086.00;1665126;84;21078;-78
2021/03/30 00:09:26;;;;;;;29.53;13.27;;;;;;;10.78;72.02;102085.11;1669391;84;21005;-78
2021/03/30 00:11:52;;;;;;;25.80;14.37;;;;;;;10.74;72.01;102081.64;1703046;83;21186;-78
2021/03/30 00:14:18;;;;;;;40.53;16.27;;;;;;;10.70;72.01;102086.78;1701598;83;21235;-78
2021/03/30 00:16:44;;;;;;;43.90;20.08;;;;;;;10.65;72.06;102091.05;1666144;84;21524;-78
2021/03/30 00:19:10;;;;;;;29.60;13.43;;;;;;;10.60;72.04;102088.00;1700346;83;20963;-78
2021/03/30 00:21:38;;;;;;;35.63;18.32;;;;;;;10.56;72.06;102090.55;1682309;83;21213;-78
2021/03/30 00:24:05;;;;;;;32.67;16.17;;;;;;;10.50;72.04;102088.78;1703519;83;21217;-78
2021/03/30 00:26:35;;;;;;;27.42;14.63;;;;;;;10.45;72.09;102091.77;1641656;86;21245;-78
2021/03/30 00:28:59;;;;;;;26.97;13.30;;;;;;;10.42;72.09;102090.87;1701953;82;21226;-78
2021/03/30 00:31:24;;;;;;;32.33;15.10;;;;;;;10.34;72.03;102084.37;1705227;83;21579;-78
2021/03/30 00:33:51;;;;;;;;;;;;;;;10.28;72.09;102089.48;1707119;83;21192;-78
2021/03/30 00:36:17;;;;;;;15.28;9.08;;;;;;;10.19;72.17;102092.86;1704691;83;20322;-78
2021/03/30 00:38:43;;;;;;;26.17;12.67;;;;;;;10.12;72.10;102094.05;1699209;83;21439;-78
2021/03/30 00:41:22;;;;;;;24.77;13.22;;;;;;;10.03;72.08;102095.24;1697710;83;21218;-78
2021/03/30 00:43:49;;;;;;;26.93;13.83;;;;;;;9.95;72.17;102100.33;1693174;83;21022;-78
2021/03/30 00:46:18;;;;;;;29.90;13.28;;;;;;;9.87;72.20;102096.83;1702308;83;21125;-78
2021/03/30 00:48:48;;;;;;;29.27;13.20;;;;;;;9.83;72.29;102104.97;1704058;83;21118;-78
2021/03/30 00:51:17;;;;;;;27.87;13.75;;;;;;;9.79;72.24;102097.17;1703657;83;21119;-78
2021/03/30 00:53:43;;;;;;;24.15;12.53;;;;;;;9.73;72.28;102100.55;1693224;83;21123;-78
2021/03/30 00:56:11;;;;;;;33.05;16.50;;;;;;;9.69;72.28;102098.78;1701153;83;21019;-78
2021/03/30 00:58:37;;;;;;;36.90;15.03;;;;;;;9.64;72.35;102091.41;1698571;83;21102;-78
2021/03/30 01:01:03;;;;;;;34.70;14.58;;;;;;;9.60;72.35;102090.50;1699329;83;21127;-78
2021/03/30 01:03:30;;;;;;;27.30;13.58;;;;;;;9.57;72.36;102098.22;1701729;83;21007;-78
2021/03/30 01:05:56;;;;;;;27.37;14.07;;;;;;;9.52;72.31;102099.00;1675690;84;21928;-78
2021/03/30 01:08:40;;;;;;;25.12;13.40;;;;;;;9.46;72.35;102097.64;1701149;83;21117;-77
2021/03/30 01:11:46;;;;;;;25.12;14.85;;;;;;;9.44;72.37;102101.92;1697343;83;21115;-77
2021/03/30 01:15:06;;;;;;;26.27;14.28;;;;;;;9.39;72.42;102102.28;1695391;83;21241;-77
2021/03/30 01:18:18;;;;;;;22.22;12.45;;;;;;;9.34;72.40;102102.68;1695389;83;21213;-77
2021/03/30 01:21:22;;;;;;;30.82;15.18;;;;;;;9.25;72.39;102100.84;1695749;83;21480;-78
2021/03/30 01:24:27;;;;;;;41.25;20.97;;;;;;;9.18;72.42;102097.73;1644716;85;21214;-77
2021/03/30 01:27:07;;;;;;;44.30;23.12;;;;;;;9.13;72.42;102108.41;1696793;83;21205;-77
2021/03/30 01:29:49;;;;;;;51.25;26.55;;;;;;;9.02;72.40;102112.13;1699552;83;21198;-77
2021/03/30 01:32:37;;;;;;;39.25;20.48;;;;;;;8.97;72.51;102113.78;1693375;83;21243;-77
2021/03/30 01:35:13;;;;;;;37.58;19.45;;;;;;;8.94;72.55;102105.99;1696611;82;22248;-77
2021/03/30 01:37:48;;;;;;;34.83;18.52;;;;;;;8.91;72.54;102114.98;1695832;83;21194;-77
2021/03/30 01:40:22;;;;;;;32.35;17.95;;;;;;;8.85;72.56;102116.17;1697776;83;21201;-77
2021/03/30 01:42:50;;;;;;;33.63;18.30;;;;;;;8.82;72.55;102114.87;1692627;82;21218;-77
2021/03/30 01:45:21;;;;;;;32.83;16.50;;;;;;;8.78;72.57;102111.80;1684770;83;21213;-77
2021/03/30 01:47:48;;;;;;;30.17;15.65;;;;;;;8.73;72.53;102111.73;1695495;84;21574;-77
2021/03/30 01:50:14;;;;;;;;;;;;;;;8.69;72.57;102114.23;1702795;83;21230;-77
2021/03/30 01:52:48;;;;;;;25.23;13.95;;;;;;;8.66;72.74;102116.34;1672948;84;20290;-77
2021/03/30 01:55:16;;;;;;;23.62;13.25;;;;;;;8.61;72.63;102116.69;1682409;83;21145;-77
2021/03/30 01:57:54;;;;;;;25.15;15.30;;;;;;;8.57;72.64;102119.64;1677684;84;21241;-77
2021/03/30 02:00:32;;;;;;;;;;;;;;;8.55;72.72;102120.45;1691208;83;21183;-77
2021/03/30 02:03:01;;;;;;;24.72;12.53;;;;;;;8.52;72.85;102114.83;1697690;83;20327;-77
2021/03/30 02:05:28;;;;;;;24.12;12.78;;;;;;;8.49;72.79;102113.48;1692112;83;21117;-77
2021/03/30 02:07:56;;;;;;;;;;;;;;;8.49;72.88;102117.77;1674838;84;21164;-77
2021/03/30 02:10:33;;;;;;;15.30;9.28;;;;;;;8.51;73.09;102124.69;1695540;83;20275;-77
2021/03/30 02:13:09;;;;;;;17.57;10.85;;;;;;;8.48;72.84;102117.33;1700231;83;21106;-77
2021/03/30 02:15:35;;;;;;;25.48;12.15;;;;;;;8.46;72.85;102123.74;1702054;83;21145;-77
2021/03/30 02:18:08;;;;;;;27.82;13.13;;;;;;;8.43;72.82;102115.09;1689401;83;21223;-77
2021/03/30 02:20:49;;;;;;;22.17;12.53;;;;;;;8.41;72.83;102120.22;1690065;83;21130;-77
2021/03/30 02:23:22;;;;;;;21.05;11.93;;;;;;;8.39;72.87;102122.33;1699750;83;21134;-77
2021/03/30 02:25:54;;;;;;;25.43;13.35;;;;;;;8.35;72.84;102123.98;1678752;83;21179;-77
2021/03/30 02:28:24;;;;;;;21.57;12.10;;;;;;;8.31;72.86;102129.92;1694164;83;21122;-77
2021/03/30 02:30:53;;;;;;;20.20;11.90;;;;;;;8.29;72.89;102136.76;1695119;82;21121;-77
2021/03/30 02:33:23;;;;;;;19.32;11.68;;;;;;;8.25;72.95;102131.97;1702359;83;21121;-77
2021/03/30 02:35:50;;;;;;;21.95;11.33;;;;;;;8.23;72.95;102139.22;1691475;83;21156;-77
2021/03/30 02:38:18;;;;;;;18.57;10.65;;;;;;;8.20;72.97;102134.88;1698612;83;20993;-77
2021/03/30 02:40:46;;;;;;;19.85;11.43;;;;;;;8.18;73.04;102139.56;1700955;83;21123;-78
2021/03/30 02:43:15;;;;;;;18.55;10.68;;;;;;;8.14;73.04;102137.77;1698419;82;21138;-77
2021/03/30 02:45:42;;;;;;;22.50;10.30;;;;;;;8.10;73.05;102139.42;1695465;83;21510;-77
2021/03/30 02:48:10;;;;;;;17.57;10.10;;;;;;;8.09;73.11;102142.83;1697662;83;21267;-77
2021/03/30 02:50:37;;;;;;;13.83;8.90;;;;;;;8.09;73.12;102141.97;1690267;83;21206;-77
2021/03/30 02:53:05;;;;;;;15.20;9.55;;;;;;;8.07;73.13;102141.94;1694055;83;21139;-77
2021/03/30 02:55:34;;;;;;;15.60;9.70;;;;;;;8.06;73.13;102140.62;1698338;83;21151;-77
2021/03/30 02:58:21;;;;;;;16.50;8.95;;;;;;;8.03;73.14;102145.30;1659113;85;21437;-77
2021/03/30 03:00:48;;;;;;;12.40;7.78;;;;;;;8.01;73.20;102143.11;1661640;84;21158;-77
2021/03/30 03:03:16;;;;;;;14.98;8.65;;;;;;;8.01;73.32;102151.25;1668910;84;21162;-77
2021/03/30 03:05:45;;;;;;;11.85;7.62;;;;;;;8.03;73.37;102148.29;1669633;84;21231;-77
2021/03/30 03:08:13;;;;;;;11.80;7.47;;;;;;;8.06;73.41;102152.21;1703589;83;21198;-78
2021/03/30 03:10:40;;;;;;;13.32;7.90;;;;;;;8.08;73.43;102151.82;1698293;83;21212;-77
2021/03/30 03:13:07;;;;;;;10.88;7.37;;;;;;;8.11;73.43;102153.17;1663905;84;21058;-77
2021/03/30 03:15:35;;;;;;;18.25;8.30;;;;;;;8.11;73.33;102154.45;1649833;85;21229;-77
2021/03/30 03:18:01;;;;;;;;;;;;;;;8.09;73.36;102151.85;1648981;84;21254;-77
2021/03/30 03:20:35;;;;;;;11.80;7.67;;;;;;;8.08;73.53;102155.69;1699949;83;20310;-77
2021/03/30 03:23:04;;;;;;;12.20;7.70;;;;;;;8.06;73.45;102154.79;1703454;83;21263;-77
2021/03/30 03:25:30;;;;;;;11.97;6.60;;;;;;;8.04;73.45;102156.47;1698671;83;21556;-77
2021/03/30 03:28:03;;;;;;;9.58;6.33;;;;;;;8.02;73.49;102148.70;1701529;82;21237;-77
2021/03/30 03:30:31;;;;;;;9.78;6.53;;;;;;;8.01;73.52;102153.83;1703373;83;21239;-77
2021/03/30 03:33:08;;;;;;;9.63;6.55;;;;;;;8.02;73.50;102157.72;1697765;83;21232;-78
2021/03/30 03:35:39;;;;;;;9.43;6.60;;;;;;;8.02;73.55;102155.56;1684566;84;21661;-77
2021/03/30 03:38:05;;;;;;;;;;;;;;;8.02;73.56;102158.14;1703663;83;21213;-77
2021/03/30 03:40:35;;;;;;;14.47;7.50;;;;;;;8.00;73.68;102166.26;1671328;84;20359;-77
2021/03/30 03:43:05;;;;;;;14.07;7.17;;;;;;;7.98;73.61;102172.25;1696133;83;21223;-77
2021/03/30 03:45:31;;;;;;;12.60;7.30;;;;;;;7.98;73.63;102173.96;1637166;86;21292;-77
2021/03/30 03:47:58;;;;;;;14.28;7.28;;;;;;;7.98;73.61;102176.53;1703898;83;21190;-77
2021/03/30 03:50:30;;;;;;;8.50;6.28;;;;;;;7.95;73.62;102173.48;1696732;83;21112;-77
2021/03/30 03:52:57;;;;;;;10.25;6.70;;;;;;;7.94;73.56;102176.89;1702081;83;21110;-77
2021/03/30 03:55:23;;;;;;;10.78;6.78;;;;;;;7.91;73.63;102169.52;1698172;83;21931;-77
2021/03/30 03:58:10;;;;;;;12.47;6.45;;;;;;;7.87;73.53;102176.31;1690301;83;21169;-77
2021/03/30 04:00:39;;;;;;;12.98;6.85;;;;;;;7.84;73.60;102178.83;1697915;82;21504;-77
2021/03/30 04:03:26;;;;;;;12.10;6.87;;;;;;;7.81;73.60;102180.05;1694795;83;21494;-77
2021/03/30 04:06:21;;;;;;;9.83;6.30;;;;;;;7.80;73.65;102182.64;1700322;83;21883;-77
2021/03/30 04:08:55;;;;;;;15.45;7.05;;;;;;;7.74;73.67;102176.06;1647662;85;21096;-77
2021/03/30 04:11:23;;;;;;;8.73;4.70;;;;;;;7.71;73.73;102183.73;1650262;85;21107;-77
2021/03/30 04:13:51;;;;;;;10.23;6.33;;;;;;;7.68;73.69;102185.82;1697553;83;20965;-77
2021/03/30 04:16:21;;;;;;;12.25;6.75;;;;;;;7.66;73.72;102186.20;1698170;83;20963;-77
2021/03/30 04:18:48;;;;;;;12.18;5.97;;;;;;;7.64;73.77;102190.45;1663983;84;20957;-77
2021/03/30 04:21:32;;;;;;;10.55;6.58;;;;;;;7.63;73.76;102197.73;1691080;82;21145;-77
2021/03/30 04:23:59;;;;;;;14.00;8.35;;;;;;;7.62;73.87;102201.14;1655590;83;21465;-75
2021/03/30 04:26:30;;;;;;;10.58;6.47;;;;;;;7.59;73.84;102203.22;1689229;82;20987;-74
2021/03/30 04:28:56;;;;;;;12.60;5.87;;;;;;;7.58;73.88;102202.77;1702053;83;20986;-74
2021/03/30 04:31:23;;;;;;;12.00;7.03;;;;;;;7.58;73.85;102201.91;1694240;83;20961;-74
2021/03/30 04:33:49;;;;;;;11.08;6.35;;;;;;;7.55;73.82;102198.84;1699116;82;20995;-77
2021/03/30 04:36:16;;;;;;;8.98;6.85;;;;;;;7.55;73.84;102196.69;1681970;82;20993;-77
2021/03/30 04:38:42;;;;;;;14.68;8.10;;;;;;;7.55;73.87;102201.84;1678865;83;21463;-78
2021/03/30 04:41:08;;;;;;;18.00;11.53;;;;;;;7.53;73.85;102205.66;1683865;82;21854;-78
2021/03/30 04:43:35;;;;;;;14.83;8.10;;;;;;;7.52;73.90;102206.92;1681090;83;21369;-79
2021/03/30 04:46:02;;;;;;;18.23;10.00;;;;;;;7.50;73.94;102209.45;1681097;83;21125;-79
2021/03/30 04:48:31;;;;;;;18.70;8.95;;;;;;;7.50;73.97;102205.59;1686148;82;21807;-79
2021/03/30 04:50:57;;;;;;;11.80;7.53;;;;;;;7.50;73.99;102210.75;1681707;82;21141;-79
2021/03/30 04:53:24;;;;;;;10.65;7.20;;;;;;;7.51;73.97;102211.61;1693142;82;21903;-79
2021/03/30 04:55:58;;;;;;;12.20;8.05;;;;;;;7.50;73.92;102212.03;1678007;83;21514;-79
2021/03/30 04:58:24;;;;;;;16.48;9.58;;;;;;;7.48;73.96;102208.97;1681733;83;21525;-78
2021/03/30 05:00:51;;;;;;;14.73;9.73;;;;;;;7.50;74.02;102215.02;1686846;82;21744;-78
2021/03/30 05:03:17;;;;;;;17.35;8.80;;;;;;;7.50;74.11;102215.02;1681070;82;21663;-78
2021/03/30 05:05:44;;;;;;;12.65;8.18;;;;;;;7.52;74.12;102217.22;1681686;83;21247;-76
2021/03/30 05:08:10;;;;;;;11.90;8.83;;;;;;;7.55;74.11;102214.71;1692904;83;22082;-76
2021/03/30 05:10:42;;;;;;;14.50;7.75;;;;;;;7.55;74.11;102210.43;1692137;84;21206;-75
2021/03/30 05:13:09;;;;;;;12.55;7.47;;;;;;;7.62;74.22;102221.31;1625059;83;21781;-76
2021/03/30 05:15:54;;;;;;;14.63;8.18;;;;;;;7.67;74.18;102215.39;1691931;82;21701;-76
2021/03/30 05:18:22;;;;;;;15.83;9.43;;;;;;;7.73;74.22;102219.39;1693627;83;21675;-77
2021/03/30 05:20:48;;;;;;;18.85;9.35;;;;;;;7.78;74.23;102217.36;1693368;83;21198;-77
2021/03/30 05:23:14;;;;;;;12.63;7.50;;;;;;;7.83;74.37;102223.86;1695310;82;21484;-79
2021/03/30 05:25:41;;;;;;;13.62;8.43;;;;;;;7.90;74.32;102227.02;1676035;83;21749;-78
2021/03/30 05:28:07;;;;;;;12.80;7.17;;;;;;;7.98;74.38;102230.63;1683545;83;21559;-78
2021/03/30 05:30:34;;;;;;;8.55;7.20;;;;;;;8.06;74.39;102221.77;1676373;83;21225;-78
2021/03/30 05:33:05;;;;;;;12.75;7.62;;;;;;;8.14;74.39;102229.23;1680970;83;21198;-77
2021/03/30 05:35:31;;;;;;;21.10;8.70;;;;;;;8.23;74.42;102231.99;1679077;84;21458;-77
2021/03/30 05:37:58;;;;;;;15.98;8.43;;;;;;;8.33;74.46;102235.20;1678641;82;21566;-78
2021/03/30 05:40:24;;;;;;;10.80;7.72;;;;;;;8.39;74.44;102235.31;1656368;84;21504;-79
2021/03/30 05:42:51;;;;;;;14.87;7.33;;;;;;;8.46;74.43;102228.56;1683747;83;21494;-79
2021/03/30 05:45:19;;;;;;;14.45;7.65;;;;;;;8.52;74.42;102238.99;1682933;83;21219;-79
2021/03/30 05:47:51;;;;;;;11.45;7.30;;;;;;;8.61;74.51;102238.74;1681528;82;21662;-78
2021/03/30 05:50:22;;;;;;;11.80;7.97;;;;;;;8.71;74.51;102242.78;1689986;82;21208;-77
2021/03/30 05:52:54;;;;;;;11.70;7.95;;;;;;;8.79;74.58;102238.62;1682533;83;21290;-78
2021/03/30 05:55:28;;;;;;;14.35;8.50;;;;;;;8.86;74.60;102245.59;1692823;82;21415;-78
2021/03/30 05:57:57;;;;;;;14.38;8.45;;;;;;;8.92;74.70;102245.28;1679064;83;21133;-78
2021/03/30 06:00:28;;;;;;;13.10;8.30;;;;;;;9.02;74.80;102247.59;1698224;83;20991;-78
2021/03/30 06:02:57;;;;;;;14.07;7.78;;;;;;;9.12;74.87;102239.16;1686000;82;21113;-78
2021/03/30 06:05:26;;;;;;;14.23;7.90;;;;;;;9.25;74.93;102249.25;1682297;82;21542;-78
2021/03/30 06:07:58;;;;;;;13.30;8.68;;;;;;;9.37;74.95;102252.41;1675706;82;22099;-78
2021/03/30 06:10:27;;;;;;;17.05;8.73;;;;;;;9.46;74.97;102245.68;1695500;82;21133;-79
2021/03/30 06:13:03;;;;;;;15.30;8.25;;;;;;;9.58;75.03;102248.86;1671732;83;21138;-78
2021/03/30 06:15:35;;;;;;;16.10;9.18;;;;;;;9.71;75.08;102252.48;1691286;82;21132;-77
2021/03/30 06:18:18;;;;;;;14.18;8.93;;;;;;;9.82;75.10;102250.50;1686904;82;21134;-78
2021/03/30 06:20:53;;;;;;;16.25;8.90;;;;;;;9.94;75.10;102251.92;1683871;84;21131;-79
2021/03/30 06:23:28;;;;;;;20.12;9.38;;;;;;;10.05;75.07;102261.10;1680729;82;21369;-78
2021/03/30 06:25:56;;;;;;;18.92;8.73;;;;;;;10.12;75.07;102257.75;1686440;84;21007;-78
2021/03/30 06:28:27;;;;;;;15.78;8.93;;;;;;;10.21;75.08;102260.48;1682020;83;20987;-78
2021/03/30 06:31:03;;;;;;;15.75;8.98;;;;;;;10.28;75.08;102257.11;1686688;83;21222;-79
2021/03/30 06:33:36;;;;;;;20.08;9.55;;;;;;;10.37;75.09;102261.52;1682498;84;21177;-79
2021/03/30 06:36:32;;;;;;;15.78;9.98;;;;;;;10.46;75.13;102263.31;1692523;82;21164;-78
2021/03/30 06:39:05;;;;;;;14.95;10.18;;;;;;;10.56;75.14;102260.84;1673001;82;21170;-78
2021/03/30 06:41:44;;;;;;;19.07;9.88;;;;;;;10.68;75.20;102257.94;1618181;85;333531;-78
2021/03/30 06:44:25;;;;;;;25.08;11.83;;;;;;;10.78;75.21;102263.22;1666436;84;21165;-77
2021/03/30 06:47:11;;;;;;;15.32;10.58;;;;;;;10.91;75.20;102266.80;1664626;83;185799;-77
2021/03/30 06:50:03;;;;;;;18.40;9.60;;;;;;;11.03;75.18;102263.41;1672158;84;21122;-77
2021/03/30 06:52:38;;;;;;;21.20;10.58;;;;;;;11.18;75.23;102267.42;1666811;84;21506;-74
2021/03/30 06:55:14;;;;;;;21.07;10.58;;;;;;;11.33;75.18;102276.61;1665167;84;21205;-78
2021/03/30 06:57:49;;;;;;;16.27;10.23;;;;;;;11.44;75.16;102272.77;1640067;85;21161;-77
2021/03/30 07:00:32;;;;;;;19.00;11.03;;;;;;;11.53;75.11;102273.70;1660155;84;21386;-77
2021/03/30 07:03:06;;;;;;;15.75;9.93;;;;;;;11.63;75.03;102272.47;1655688;84;21533;-77
2021/03/30 07:05:39;;;;;;;16.32;10.38;;;;;;;11.68;75.01;102283.30;1657297;85;21114;-77
2021/03/30 07:08:14;;;;;;;16.27;10.15;;;;;;;11.75;75.05;102277.30;1658942;84;21259;-77
2021/03/30 07:10:45;;;;;;;14.90;9.60;;;;;;;11.79;74.96;102280.38;1651186;85;21225;-77
2021/03/30 07:13:15;;;;;;;23.85;10.88;;;;;;;11.85;74.99;102288.63;1658291;84;21220;-77
2021/03/30 07:15:42;;;;;;;14.40;10.25;;;;;;;11.90;75.04;102281.31;1651343;84;21205;-77
2021/03/30 07:18:40;;;;;;;16.02;10.55;;;;;;;11.97;74.99;102282.17;1648875;84;21209;-77
2021/03/30 07:21:20;;;;;;;29.57;15.45;;;;;;;12.03;75.05;102284.80;1648281;85;21237;-76
2021/03/30 07:24:11;;;;;;;20.08;11.63;;;;;;;12.14;75.07;102284.42;1661441;85;21205;-77
2021/03/30 07:26:58;;;;;;;15.65;9.50;;;;;;;12.24;75.07;102282.73;1658662;85;21149;-77
2021/03/30 07:29:36;;;;;;;12.28;8.88;;;;;;;12.34;75.00;102284.50;1653848;85;22775;-78
2021/03/30 07:32:09;;;;;;;17.73;10.82;;;;;;;12.41;74.97;102287.55;1651786;85;21178;-78
2021/03/30 07:35:02;;;;;;;13.25;9.80;;;;;;;12.48;74.99;102290.57;1656023;85;21118;-77
2021/03/30 07:37:36;;;;;;;17.80;9.65;;;;;;;12.56;74.96;102286.27;1652890;85;21124;-77
2021/03/30 07:40:15;;;;;;;16.25;9.30;;;;;;;12.64;74.95;102295.38;1660578;85;21190;-76
2021/03/30 07:42:45;;;;;;;15.13;8.93;;;;;;;12.71;74.93;102288.03;1664548;85;21528;-78
2021/03/30 07:45:14;;;;;;;13.90;8.53;;;;;;;12.79;74.92;102294.54;1660344;85;21154;-77
2021/03/30 07:47:48;;;;;;;20.88;8.63;;;;;;;12.86;74.88;102302.78;1659044;85;21122;-76
2021/03/30 07:50:19;;;;;;;15.80;9.58;;;;;;;12.93;74.88;102308.41;1659386;85;21185;-77
2021/03/30 07:52:52;;;;;;;16.87;9.65;;;;;;;13.03;74.92;102304.06;1665897;85;21146;-78
2021/03/30 07:55:25;;;;;;;16.50;9.25;;;;;;;13.10;74.86;102302.77;1662941;85;21129;-77
2021/03/30 07:58:13;;;;;;;12.50;9.23;;;;;;;13.16;74.82;102305.41;1666873;85;21395;-77
2021/03/30 08:00:48;;;;;;;16.52;9.48;;;;;;;13.18;74.68;102308.01;1653875;85;21201;-77
2021/03/30 08:03:19;;;;;;;15.08;8.63;;;;;;;13.22;74.78;102308.02;1647741;85;21141;-78
2021/03/30 08:06:07;;;;;;;16.82;10.13;;;;;;;13.30;74.77;102309.31;1652120;85;21024;-77
2021/03/30 08:08:51;;;;;;;19.65;10.78;;;;;;;13.34;74.75;102307.14;1660559;84;21174;-78
2021/03/30 08:11:36;;;;;;;15.43;8.75;;;;;;;13.40;74.76;102307.58;1651211;85;21115;-78
2021/03/30 08:14:04;;;;;;;14.87;9.40;;;;;;;13.45;74.60;102308.44;1656773;85;21444;-78
2021/03/30 08:16:51;;;;;;;17.45;9.60;;;;;;;13.47;74.66;102313.20;1665967;85;21130;-78
2021/03/30 08:19:19;;;;;;;16.67;10.20;;;;;;;13.53;74.73;102314.03;1676019;83;21443;-78
2021/03/30 08:22:04;;;;;;;17.52;9.83;;;;;;;13.60;74.72;102312.30;1680312;84;21110;-78
2021/03/30 08:24:50;;;;;;;16.32;9.15;;;;;;;13.68;74.70;102315.75;1662424;85;21137;-77
2021/03/30 08:27:38;;;;;;;25.55;11.93;;;;;;;13.73;74.62;102314.01;1660204;85;21123;-78
2021/03/30 08:30:18;;;;;;;20.23;10.08;;;;;;;13.78;74.65;102315.30;1658618;85;20993;-78
2021/03/30 08:32:48;;;;;;;14.58;9.80;;;;;;;13.86;74.61;102318.75;1666361;85;21139;-79
2021/03/30 08:35:32;;;;;;;14.60;9.35;;;;;;;13.92;74.57;102318.73;1646725;85;21133;-78
2021/03/30 08:37:59;;;;;;;12.88;7.70;;;;;;;14.00;74.57;102320.02;1647620;85;21235;-78
2021/03/30 08:40:43;;;;;;;15.15;8.45;;;;;;;14.08;74.56;102319.53;1651830;85;21162;-78
2021/03/30 08:43:20;;;;;;;13.95;7.40;;;;;;;14.15;74.52;102322.55;1667634;85;21139;-79
2021/03/30 08:46:14;;;;;;;14.55;7.22;;;;;;;14.24;74.49;102331.62;1670768;85;21168;-78
2021/03/30 08:48:50;;;;;;;9.53;6.60;;;;;;;14.30;74.41;102327.69;1667174;85;21258;-78
2021/03/30 08:51:19;;;;;;;8.80;6.20;;;;;;;14.35;74.39;102329.84;1648684;85;21202;-78
2021/03/30 08:53:47;;;;;;;8.18;5.17;;;;;;;14.40;74.37;102333.30;1649512;85;21016;-78
2021/03/30 08:56:16;;;;;;;4.95;4.17;;;;;;;14.44;74.27;102329.84;1673455;85;21745;-78
2021/03/30 08:58:49;;;;;;;6.65;4.87;;;;;;;14.49;74.34;102335.02;1669574;85;21213;-78
2021/03/30 09:01:16;;;;;;;8.28;4.12;;;;;;;14.55;74.38;102337.59;1669560;85;21228;-77
2021/03/30 09:03:43;;;;;;;7.10;3.92;;;;;;;14.61;74.32;102336.23;1671914;85;21059;-78
2021/03/30 09:06:36;;;;;;;5.30;3.65;;;;;;;14.67;74.30;102337.50;1673480;85;21147;-79
2021/03/30 09:09:04;;;;;;;8.83;3.20;;;;;;;14.75;74.30;102342.23;1670184;85;21154;-80
2021/03/30 09:11:36;;;;;;;6.50;2.55;;;;;;;14.85;74.26;102348.26;1669102;85;21387;-79
2021/03/30 09:14:09;;;;;;;3.05;2.12;;;;;;;14.91;74.21;102341.71;1660696;85;21229;-79
2021/03/30 09:16:37;;;;;;;4.30;2.33;;;;;;;14.95;74.08;102342.12;1656789;85;21216;-78
2021/03/30 09:19:25;;;;;;;;;;;;;;;15.00;74.11;102343.39;1672405;85;21124;-78
2021/03/30 09:22:00;;;;;;;3.75;2.10;;;;;;;15.06;73.88;102339.44;1661811;85;20265;-79
2021/03/30 09:26:58;;;;;;;3.40;1.98;;;;;;;15.14;74.04;102342.83;1673581;85;21016;-79
2021/03/30 09:29:25;;;;;;;2.22;1.70;;;;;;;15.22;73.98;102343.20;1673709;85;21139;-78
2021/03/30 09:31:52;;;;;;;3.55;2.25;;;;;;;15.29;74.02;102334.89;1671767;85;21137;-79
2021/03/30 09:34:18;;;;;;;3.92;2.15;;;;;;;15.37;73.86;102334.84;1673624;85;21106;-77
2021/03/30 09:36:49;;;;;;;3.42;1.92;;;;;;;15.47;73.99;102332.14;1669817;85;21004;-79
2021/03/30 09:39:26;;;;;;;3.42;2.30;;;;;;;15.56;73.83;102323.38;1681364;84;20950;-80
2021/03/30 09:41:54;;;;;;;3.00;1.80;;;;;;;15.67;73.76;102321.97;1671617;85;20999;-79
2021/03/30 09:44:23;;;;;;;3.08;2.00;;;;;;;15.72;73.64;102317.13;1669879;84;21134;-79
2021/03/30 09:46:55;;;;;;;2.55;1.90;;;;;;;15.80;73.67;102319.66;1672813;85;21174;-79
2021/03/30 09:49:24;;;;;;;2.90;1.60;;;;;;;15.91;73.70;102324.33;1651087;85;38093;-79
2021/03/30 09:51:53;;;;;;;1.37;1.10;;;;;;;16.03;73.59;102319.42;1647735;85;21242;-80
2021/03/30 09:54:24;;;;;;;4.08;1.40;;;;;;;16.13;73.59;102321.01;1645518;85;21229;-80
2021/03/30 09:57:15;;;;;;;0.95;0.93;;;;;;;16.26;73.49;102317.38;1666073;84;21214;-80
2021/03/30 09:59:50;;;;;;;1.85;1.17;;;;;;;16.35;73.30;102309.87;1665843;85;21225;-79
2021/03/30 10:02:24;;;;;;;1.67;0.90;;;;;;;16.39;73.27;102313.73;1666633;84;21205;-79
2021/03/30 10:05:01;;;;;;;1.20;0.55;;;;;;;16.43;73.20;102304.97;1653375;85;21229;-79
2021/03/30 10:07:36;;;;;;;1.17;0.60;;;;;;;16.51;73.21;102300.95;1647831;85;21233;-79
2021/03/30 10:10:07;;;;;;;;;;;;;;;16.65;73.29;102298.16;1655548;84;21230;-79
2021/03/30 10:12:56;;;;;;;1.22;0.85;;;;;;;16.80;73.02;102301.41;1662776;85;20307;-80
2021/03/30 10:15:40;;;;;;;1.20;0.90;;;;;;;16.91;73.12;102299.08;1660684;84;21591;-79
2021/03/30 10:18:10;;;;;;;3.02;1.20;;;;;;;17.00;73.04;102299.80;1672403;84;20990;-79
2021/03/30 10:20:49;;;;;;;1.50;1.10;;;;;;;17.11;72.95;102294.41;1668513;84;21887;-79
2021/03/30 10:23:19;;;;;;;2.58;1.05;;;;;;;17.19;72.90;102292.50;1665821;85;21199;-79
2021/03/30 10:25:55;;;;;;;2.15;0.85;;;;;;;17.26;72.80;102291.50;1672562;85;21134;-79
2021/03/30 10:28:30;;;;;;;2.25;0.93;;;;;;;17.34;72.74;102293.99;1682848;83;21436;-79
2021/03/30 10:31:33;;;;;;;1.60;1.00;;;;;;;17.39;72.66;102294.77;1670271;85;20979;-80
2021/03/30 10:33:59;;;;;;;4.00;1.98;;;;;;;17.47;72.59;102292.45;1671032;85;21146;-79
2021/03/30 10:36:26;;;;;;;3.92;2.25;;;;;;;17.58;72.59;102284.85;1672458;85;21178;-79
2021/03/30 10:39:10;;;;;;;4.80;2.27;;;;;;;17.67;72.53;102286.89;1626320;85;21548;-79
2021/03/30 10:41:43;;;;;;;5.30;2.17;;;;;;;17.74;72.44;102279.30;1672096;85;21514;-79
2021/03/30 10:44:17;;;;;;;2.45;1.80;;;;;;;17.78;72.30;102276.19;1668093;85;21205;-79
2021/03/30 10:46:48;;;;;;;3.10;2.00;;;;;;;17.83;72.24;102273.03;1671397;84;21125;-80
2021/03/30 10:49:15;;;;;;;3.37;2.20;;;;;;;17.79;71.88;102264.83;1682263;84;21118;-80
2021/03/30 10:51:45;;;;;;;5.72;2.60;;;;;;;17.72;72.05;102266.70;1630886;85;21145;-79
2021/03/30 10:54:15;;;;;;;5.62;2.70;;;;;;;17.71;72.03;102266.28;1682597;84;21205;-79
2021/03/30 10:56:42;;;;;;;4.78;2.83;;;;;;;17.72;72.07;102261.91;1629717;85;21221;-79
2021/03/30 10:59:13;;;;;;;5.85;2.37;;;;;;;17.76;72.01;102260.96;1672622;84;21479;-80
2021/03/30 11:01:53;;;;;;;4.17;2.85;;;;;;;17.79;71.90;102254.36;1657849;85;21216;-79
2021/03/30 11:04:20;;;;;;;6.67;3.50;;;;;;;17.76;71.67;102255.28;1653384;85;21220;-79
2021/03/30 11:06:47;;;;;;;5.35;3.20;;;;;;;17.75;71.79;102256.17;1661989;84;21984;-79
2021/03/30 11:09:26;;;;;;;5.33;3.40;;;;;;;17.75;71.67;102252.25;1654387;85;21122;-79
2021/03/30 11:11:53;;;;;;;4.08;3.20;;;;;;;17.77;71.59;102250.91;1629299;85;21153;-79
2021/03/30 11:14:21;;;;;;;6.30;3.20;;;;;;;17.75;71.54;102252.70;1650488;85;21134;-79
2021/03/30 11:16:49;;;;;;;5.58;3.75;;;;;;;17.74;71.50;102250.97;1646523;85;20995;-79
2021/03/30 11:19:16;;;;;;;4.35;3.72;;;;;;;17.71;71.35;102248.41;1648287;85;21145;-79
2021/03/30 11:21:43;;;;;;;6.75;4.45;;;;;;;17.69;71.39;102244.97;1670981;84;21567;-80
2021/03/30 11:24:21;;;;;;;7.85;4.45;;;;;;;17.66;71.31;102242.44;1648210;85;21161;-79
2021/03/30 11:26:43;;;;;;;5.78;3.65;;;;;;;17.65;71.11;102235.45;1630354;85;21133;-79
2021/03/30 11:29:12;;;;;;;5.75;3.35;;;;;;;17.55;71.11;102232.14;1626789;85;21127;-79
2021/03/30 11:34:22;;;;;;;10.15;4.80;;;;;;;17.44;71.02;102229.73;1664642;85;21118;-79
2021/03/30 11:36:45;;;;;;;6.67;4.25;;;;;;;17.40;70.98;102229.81;1671875;85;21118;-78
2021/03/30 11:39:12;;;;;;;5.03;3.62;;;;;;;17.35;70.93;102225.11;1652633;85;21132;-79
2021/03/30 11:41:38;;;;;;;5.62;3.35;;;;;;;17.36;70.92;102215.94;1671599;85;20991;-79
2021/03/30 11:44:14;;;;;;;9.00;3.97;;;;;;;17.40;70.95;102212.38;1671525;84;21134;-80
2021/03/30 11:46:41;;;;;;;9.50;4.35;;;;;;;17.48;70.90;102214.40;1672285;85;21147;-79
2021/03/30 11:49:07;;;;;;;9.75;4.20;;;;;;;17.54;70.84;102209.50;1668364;85;21440;-79
2021/03/30 11:51:34;;;;;;;;;;;;;;;17.59;70.63;102205.04;1673015;85;21102;-79
2021/03/30 11:54:00;;;;;;;6.83;4.15;;;;;;;17.65;70.37;102204.06;1672074;85;20176;-79
2021/03/30 11:56:27;;;;;;;9.30;4.72;;;;;;;17.71;70.44;102191.72;1668149;85;21019;-79